Time;durP1;ratioP1;P1;durP2;ratioP2;P2;SDS_P1;SDS_P2;PMS_P1;PMS_P2;Temp;Humidity;BMP_temperature;BMP_pressure;BME280_temperature;BME280_humidity;BME280_pressure;Samples;Min_cycle;Max_cycle;Signal;HPM_P1;HPM_P2
2023/06/27 00:00:39;;;;;;;4.60;2.73;;;20.10;78.60;;;;;;4952025;29;20709;-66
2023/06/27 00:03:05;;;;;;;2.87;2.67;;;20.10;79.90;;;;;;4951335;28;20312;-66
2023/06/27 00:05:31;;;;;;;5.50;2.57;;;20.10;80.60;;;;;;4948248;28;20199;-66
2023/06/27 00:07:57;;;;;;;3.50;3.07;;;20.20;80.50;;;;;;4946126;28;20440;-66
2023/06/27 00:10:22;;;;;;;4.30;2.67;;;20.20;79.40;;;;;;4945078;28;20185;-66
2023/06/27 00:12:48;;;;;;;3.10;2.80;;;20.10;79.80;;;;;;4957692;28;20182;-66
2023/06/27 00:15:13;;;;;;;4.47;2.90;;;20.10;81.80;;;;;;4960725;28;20220;-66
2023/06/27 00:17:40;;;;;;;9.57;3.23;;;20.10;81.10;;;;;;4951190;29;20187;-66
2023/06/27 00:20:09;;;;;;;5.80;2.77;;;20.00;81.70;;;;;;4952675;29;20180;-66
2023/06/27 00:22:40;;;;;;;5.33;2.97;;;20.00;81.10;;;;;;4951354;28;20452;-66
2023/06/27 00:25:09;;;;;;;5.17;2.70;;;20.00;81.70;;;;;;4955721;28;20504;-66
2023/06/27 00:27:35;;;;;;;5.13;3.10;;;20.10;82.60;;;;;;4954857;28;20448;-65
2023/06/27 00:30:00;;;;;;;7.17;2.97;;;20.00;83.00;;;;;;4955635;28;20439;-66
2023/06/27 00:32:25;;;;;;;3.63;3.07;;;20.00;84.30;;;;;;4954109;28;20184;-66
2023/06/27 00:34:51;;;;;;;3.60;2.50;;;20.00;84.60;;;;;;4955484;28;20212;-65
2023/06/27 00:37:17;;;;;;;3.30;2.70;;;20.00;83.40;;;;;;4950474;28;20643;-65
2023/06/27 00:39:42;;;;;;;3.67;3.17;;;20.00;84.80;;;;;;4960075;28;20197;-66
2023/06/27 00:42:08;;;;;;;3.40;3.10;;;20.00;86.10;;;;;;4951756;28;20189;-65
2023/06/27 00:44:33;;;;;;;4.17;2.37;;;19.80;84.30;;;;;;4951889;29;20216;-65
2023/06/27 00:46:59;;;;;;;3.07;2.77;;;19.70;86.80;;;;;;4948952;28;20626;-66
2023/06/27 00:49:25;;;;;;;4.13;3.30;;;19.70;88.70;;;;;;4956700;28;20251;-65
2023/06/27 00:51:53;;;;;;;3.03;2.80;;;19.70;90.20;;;;;;4951437;28;20952;-65
2023/06/27 00:54:18;;;;;;;4.13;3.00;;;19.60;90.00;;;;;;4951749;29;20555;-66
2023/06/27 00:56:45;;;;;;;5.07;2.83;;;19.60;91.30;;;;;;4952403;29;20464;-66
2023/06/27 00:59:11;;;;;;;5.03;3.07;;;19.50;91.40;;;;;;4952581;29;20243;-66
2023/06/27 01:01:37;;;;;;;5.00;2.93;;;19.50;90.90;;;;;;4951288;28;20527;-65
2023/06/27 01:04:03;;;;;;;5.57;2.57;;;19.50;91.40;;;;;;4960045;28;20524;-66
2023/06/27 01:06:39;;;;;;;5.23;3.10;;;19.40;91.20;;;;;;4962227;28;20208;-65
2023/06/27 01:09:15;;;;;;;3.40;2.47;;;19.40;91.20;;;;;;4945256;28;20475;-65
2023/06/27 01:11:52;;;;;;;4.17;2.40;;;19.50;91.60;;;;;;4951715;28;20439;-65
2023/06/27 01:14:19;;;;;;;4.40;3.30;;;19.50;91.70;;;;;;4966937;28;20926;-65
2023/06/27 01:16:47;;;;;;;3.30;2.97;;;19.60;91.90;;;;;;4963837;28;20475;-66
2023/06/27 01:19:16;;;;;;;3.63;2.77;;;19.50;91.90;;;;;;4954767;28;20448;-66
2023/06/27 01:21:44;;;;;;;5.87;3.27;;;19.60;92.00;;;;;;4954563;28;20583;-66
2023/06/27 01:24:11;;;;;;;7.57;3.67;;;19.60;91.90;;;;;;4954240;28;20468;-65
2023/06/27 01:26:36;;;;;;;4.00;2.67;;;19.50;92.20;;;;;;4946491;28;20501;-65
2023/06/27 01:29:02;;;;;;;5.33;3.07;;;19.60;93.50;;;;;;4957142;28;20491;-65
2023/06/27 01:31:41;;;;;;;5.60;2.40;;;19.60;93.80;;;;;;4943195;28;20185;-66
2023/06/27 01:34:17;;;;;;;3.50;2.80;;;19.50;93.60;;;;;;4949893;28;20184;-65
2023/06/27 01:36:58;;;;;;;2.73;2.53;;;19.50;93.10;;;;;;4958535;28;21015;-65
2023/06/27 01:39:44;;;;;;;4.70;2.67;;;19.50;93.80;;;;;;4958188;28;20452;-66
2023/06/27 01:42:23;;;;;;;4.13;2.63;;;19.40;93.20;;;;;;4954201;28;20828;-65
2023/06/27 01:44:51;;;;;;;2.80;2.60;;;19.50;94.60;;;;;;4954381;28;20476;-66
2023/06/27 01:47:17;;;;;;;3.67;2.87;;;19.40;94.30;;;;;;4956899;28;20441;-66
2023/06/27 01:49:43;;;;;;;9.73;3.13;;;19.40;93.90;;;;;;4948733;28;20475;-66
2023/06/27 01:52:12;;;;;;;3.33;2.50;;;19.40;93.70;;;;;;4952567;28;20444;-65
2023/06/27 01:54:41;;;;;;;5.03;3.47;;;19.40;94.60;;;;;;4954833;28;20445;-66
2023/06/27 01:57:08;;;;;;;5.87;3.53;;;19.40;94.70;;;;;;4960000;28;20440;-66
2023/06/27 01:59:33;;;;;;;3.67;2.57;;;19.40;95.30;;;;;;4956174;28;20445;-65
2023/06/27 02:01:59;;;;;;;4.93;3.00;;;19.30;95.10;;;;;;4952451;28;20444;-65
2023/06/27 02:04:24;;;;;;;4.00;2.97;;;19.30;95.50;;;;;;4956219;28;20251;-65
2023/06/27 02:06:50;;;;;;;3.40;3.07;;;19.30;95.80;;;;;;4954364;29;20240;-65
2023/06/27 02:09:15;;;;;;;3.80;2.73;;;19.20;97.30;;;;;;4954957;29;20189;-65
2023/06/27 02:11:41;;;;;;;3.63;3.30;;;19.10;96.30;;;;;;4953357;29;20653;-65
2023/06/27 02:14:06;;;;;;;4.73;2.37;;;19.10;96.60;;;;;;4952028;29;20195;-66
2023/06/27 02:16:32;;;;;;;3.73;3.17;;;19.10;97.20;;;;;;4953772;28;20231;-65
2023/06/27 02:18:57;;;;;;;5.67;2.90;;;19.00;96.90;;;;;;4962390;28;20201;-66
2023/06/27 02:21:23;;;;;;;6.17;2.90;;;18.90;97.50;;;;;;4962931;28;20192;-65
2023/06/27 02:23:48;;;;;;;7.90;3.37;;;18.90;98.40;;;;;;4953782;29;20212;-65
2023/06/27 02:26:14;;;;;;;3.53;2.50;;;19.00;98.20;;;;;;4952508;28;20205;-66
2023/06/27 02:28:39;;;;;;;4.60;1.80;;;18.90;97.70;;;;;;4965351;28;20532;-65
2023/06/27 02:31:05;;;;;;;3.80;2.90;;;18.90;97.60;;;;;;4962228;28;20192;-65
2023/06/27 02:33:30;;;;;;;4.60;3.27;;;18.80;99.90;;;;;;4947206;28;20201;-66
2023/06/27 02:35:56;;;;;;;2.67;2.47;;;18.70;99.40;;;;;;4949815;28;20201;-65
2023/06/27 02:38:21;;;;;;;4.13;2.80;;;18.70;99.60;;;;;;4953573;28;20188;-65
2023/06/27 02:40:47;;;;;;;3.33;2.70;;;18.80;99.00;;;;;;4951311;28;20566;-65
2023/06/27 02:43:12;;;;;;;3.30;2.53;;;18.70;99.50;;;;;;4949571;28;20204;-65
2023/06/27 02:45:38;;;;;;;3.47;3.20;;;18.70;99.70;;;;;;4946901;28;20209;-66
2023/06/27 02:48:04;;;;;;;5.17;3.27;;;18.70;99.10;;;;;;4965447;28;20176;-65
2023/06/27 02:50:30;;;;;;;4.83;2.80;;;18.70;99.90;;;;;;4955425;28;20185;-65
2023/06/27 02:52:55;;;;;;;3.20;2.80;;;18.70;99.80;;;;;;4958478;28;20439;-65
2023/06/27 02:55:21;;;;;;;3.33;2.90;;;18.70;99.90;;;;;;4951955;28;20216;-65
2023/06/27 02:57:46;;;;;;;4.23;3.47;;;18.70;99.90;;;;;;4946654;28;20181;-65
2023/06/27 03:00:12;;;;;;;6.73;2.90;;;18.70;99.90;;;;;;4961136;28;20204;-65
2023/06/27 03:02:37;;;;;;;3.43;3.13;;;18.80;99.90;;;;;;4949250;28;20264;-66
2023/06/27 03:05:03;;;;;;;4.80;3.07;;;18.80;99.90;;;;;;4951559;28;20263;-66
2023/06/27 03:07:29;;;;;;;4.30;2.50;;;18.80;99.90;;;;;;4953549;28;20185;-65
2023/06/27 03:09:54;;;;;;;3.93;2.73;;;18.70;99.90;;;;;;4951444;28;20440;-65
2023/06/27 03:12:20;;;;;;;4.33;2.90;;;18.60;99.90;;;;;;4958583;28;20177;-65
2023/06/27 03:14:45;;;;;;;5.07;2.90;;;18.60;99.90;;;;;;4956424;28;20201;-65
2023/06/27 03:17:11;;;;;;;3.13;2.83;;;18.70;99.90;;;;;;4950849;28;20202;-65
2023/06/27 03:19:36;;;;;;;4.00;2.90;;;18.70;99.90;;;;;;4958503;28;20208;-66
2023/06/27 03:22:02;;;;;;;4.40;2.60;;;18.70;99.90;;;;;;4958953;28;20173;-67
2023/06/27 03:24:27;;;;;;;4.20;3.00;;;18.60;99.90;;;;;;4956057;28;20204;-65
2023/06/27 03:26:53;;;;;;;7.43;4.70;;;18.60;99.90;;;;;;4948279;28;20196;-66
2023/06/27 03:29:18;;;;;;;2.93;2.73;;;18.60;99.90;;;;;;4945950;28;20204;-65
2023/06/27 03:31:44;;;;;;;4.37;3.00;;;18.50;99.90;;;;;;4954277;28;20743;-65
2023/06/27 03:34:09;;;;;;;6.80;3.40;;;18.50;99.90;;;;;;4963396;28;20185;-65
2023/06/27 03:36:35;;;;;;;3.10;2.73;;;18.50;99.90;;;;;;4958358;28;20292;-65
2023/06/27 03:39:01;;;;;;;4.10;3.40;;;18.40;99.90;;;;;;4947008;28;20200;-65
2023/06/27 03:41:26;;;;;;;4.20;2.53;;;18.40;99.90;;;;;;4950304;28;20188;-65
2023/06/27 03:43:52;;;;;;;4.53;2.80;;;18.30;99.90;;;;;;4950629;28;20885;-66
2023/06/27 03:46:18;;;;;;;3.67;2.60;;;18.30;99.90;;;;;;4961925;28;20199;-65
2023/06/27 03:48:43;;;;;;;3.90;2.50;;;18.40;99.90;;;;;;4956077;28;20208;-65
2023/06/27 03:51:09;;;;;;;3.63;2.80;;;18.30;99.90;;;;;;4949018;28;20184;-65
2023/06/27 03:53:34;;;;;;;12.30;3.43;;;18.40;99.90;;;;;;4959822;28;20188;-65
2023/06/27 03:56:03;;;;;;;3.60;3.03;;;18.40;99.90;;;;;;4950651;28;20269;-65
2023/06/27 03:58:29;;;;;;;6.33;3.30;;;18.40;99.90;;;;;;4958564;28;20227;-65
2023/06/27 04:00:54;;;;;;;3.77;3.47;;;18.40;99.90;;;;;;4951469;29;20471;-65
2023/06/27 04:03:20;;;;;;;4.20;3.00;;;18.30;99.90;;;;;;4952993;29;20520;-65
2023/06/27 04:05:46;;;;;;;3.80;3.37;;;18.30;99.90;;;;;;4952621;29;20255;-65
2023/06/27 04:08:12;;;;;;;2.93;2.63;;;18.20;99.90;;;;;;4952541;29;20444;-65
2023/06/27 04:10:42;;;;;;;3.27;2.60;;;18.20;99.90;;;;;;4951085;29;20510;-65
2023/06/27 04:13:10;;;;;;;4.70;2.93;;;18.30;99.90;;;;;;4956064;28;20302;-65
2023/06/27 04:15:42;;;;;;;3.43;3.10;;;18.30;99.90;;;;;;4963463;28;20537;-65
2023/06/27 04:18:07;;;;;;;3.00;2.70;;;18.30;99.90;;;;;;4946893;29;20568;-65
2023/06/27 04:20:33;;;;;;;3.53;2.87;;;18.30;99.90;;;;;;4949242;29;20444;-65
2023/06/27 04:22:59;;;;;;;3.83;3.53;;;18.30;99.90;;;;;;4962772;28;20239;-65
2023/06/27 04:25:30;;;;;;;6.03;2.43;;;18.50;99.90;;;;;;4950022;28;20208;-65
2023/06/27 04:27:55;;;;;;;4.80;3.00;;;18.60;99.90;;;;;;4949503;28;20188;-65
2023/06/27 04:30:21;;;;;;;4.83;3.40;;;18.60;99.90;;;;;;4952096;28;20523;-65
2023/06/27 04:32:48;;;;;;;4.30;3.73;;;18.70;99.90;;;;;;4952090;28;20185;-65
2023/06/27 04:35:17;;;;;;;4.23;2.70;;;18.70;99.90;;;;;;4958254;28;20540;-65
2023/06/27 04:37:43;;;;;;;6.33;3.17;;;18.70;99.90;;;;;;4955271;28;20464;-65
2023/06/27 04:40:11;;;;;;;3.07;2.77;;;18.80;99.90;;;;;;4952233;28;20465;-65
2023/06/27 04:42:37;;;;;;;3.63;2.47;;;18.70;99.90;;;;;;4948560;28;21877;-65
2023/06/27 04:45:03;;;;;;;3.43;2.83;;;18.70;99.90;;;;;;4953823;28;20826;-65
2023/06/27 04:47:28;;;;;;;3.37;3.07;;;18.70;99.90;;;;;;4952570;29;20439;-65
2023/06/27 04:49:54;;;;;;;3.87;2.73;;;18.70;99.90;;;;;;4954390;28;20263;-66
2023/06/27 04:52:19;;;;;;;4.70;2.83;;;18.80;99.90;;;;;;4956229;29;20397;-64
2023/06/27 04:54:50;;;;;;;6.23;4.30;;;18.80;99.90;;;;;;4956001;28;20223;-65
2023/06/27 04:57:16;;;;;;;5.90;2.57;;;18.90;99.90;;;;;;4936707;29;20247;-65
2023/06/27 04:59:42;;;;;;;8.77;3.10;;;19.00;99.90;;;;;;4958026;28;20452;-65
2023/06/27 05:02:08;;;;;;;5.67;2.50;;;18.90;99.90;;;;;;4959872;28;20274;-65
2023/06/27 05:04:33;;;;;;;3.60;3.27;;;19.00;99.90;;;;;;4965071;28;20913;-65
2023/06/27 05:06:59;;;;;;;5.00;2.90;;;19.10;99.90;;;;;;4957541;28;20867;-65
2023/06/27 05:09:25;;;;;;;6.40;2.63;;;19.10;99.90;;;;;;4968936;28;20192;-65
2023/06/27 05:11:50;;;;;;;3.60;2.73;;;19.10;99.90;;;;;;4956282;28;20185;-65
2023/06/27 05:14:16;;;;;;;4.03;3.20;;;19.20;99.90;;;;;;4955493;29;20557;-65
2023/06/27 05:16:41;;;;;;;4.73;3.00;;;19.30;99.90;;;;;;5013684;23;20317;-67
2023/06/27 05:19:07;;;;;;;3.60;3.00;;;19.30;99.90;;;;;;5012623;28;20265;-67
2023/06/27 05:21:32;;;;;;;8.57;2.87;;;19.30;99.90;;;;;;5011328;28;20561;-68
2023/06/27 05:23:58;;;;;;;5.53;2.77;;;19.20;99.90;;;;;;5010283;28;20718;-68
2023/06/27 05:26:24;;;;;;;3.17;2.80;;;19.30;99.90;;;;;;5006902;28;20278;-68
2023/06/27 05:28:50;;;;;;;6.50;2.57;;;19.30;99.90;;;;;;5009572;28;20249;-67
2023/06/27 05:31:16;;;;;;;4.60;2.93;;;19.40;99.90;;;;;;5006420;28;20463;-68
2023/06/27 05:33:41;;;;;;;7.40;2.60;;;19.40;99.30;;;;;;5006571;28;20178;-68
2023/06/27 05:36:07;;;;;;;3.67;3.37;;;19.60;99.60;;;;;;5009895;28;20554;-67
2023/06/27 05:38:32;;;;;;;7.10;2.77;;;19.60;98.70;;;;;;5011241;28;20183;-68
2023/06/27 05:40:58;;;;;;;7.03;2.97;;;19.70;98.50;;;;;;5009999;28;20184;-68
2023/06/27 05:43:23;;;;;;;2.60;2.40;;;19.90;98.20;;;;;;5011198;28;20668;-67
2023/06/27 05:45:49;;;;;;;5.70;2.90;;;19.90;97.30;;;;;;5012992;28;20203;-67
2023/06/27 05:48:15;;;;;;;3.17;2.87;;;20.00;97.20;;;;;;5011417;28;20210;-68
2023/06/27 05:50:40;;;;;;;2.73;2.53;;;20.10;98.10;;;;;;5010242;28;20438;-68
2023/06/27 05:53:06;;;;;;;2.67;2.47;;;20.10;96.90;;;;;;5006235;28;20178;-68
2023/06/27 05:55:31;;;;;;;5.37;2.90;;;20.20;97.00;;;;;;5013216;28;20198;-67
2023/06/27 05:57:57;;;;;;;4.53;3.13;;;20.10;97.00;;;;;;5008150;28;20179;-67
2023/06/27 06:00:23;;;;;;;6.27;2.70;;;20.30;96.30;;;;;;5011031;28;20192;-68
2023/06/27 06:02:48;;;;;;;4.57;2.60;;;20.20;95.70;;;;;;5002622;28;20179;-68
2023/06/27 06:05:14;;;;;;;3.63;2.63;;;20.50;95.60;;;;;;5003868;28;20242;-68
2023/06/27 06:07:44;;;;;;;4.93;2.97;;;20.80;93.90;;;;;;5011191;28;20171;-67
2023/06/27 06:10:10;;;;;;;4.10;3.03;;;21.20;93.10;;;;;;4998238;28;20491;-68
2023/06/27 06:12:37;;;;;;;3.93;2.50;;;21.50;91.40;;;;;;5006937;28;20477;-68
2023/06/27 06:15:03;;;;;;;4.90;2.97;;;21.50;86.80;;;;;;5009327;28;20800;-67
2023/06/27 06:17:28;;;;;;;4.00;2.83;;;21.50;87.50;;;;;;5011367;28;20471;-67
2023/06/27 06:19:54;;;;;;;3.40;2.60;;;21.30;87.50;;;;;;5008476;28;20598;-67
2023/06/27 06:22:19;;;;;;;5.50;2.20;;;21.40;87.00;;;;;;5010759;28;20190;-68
2023/06/27 06:24:45;;;;;;;5.60;2.30;;;21.30;86.30;;;;;;5011936;28;20288;-68
2023/06/27 06:27:11;;;;;;;2.57;2.37;;;21.40;87.40;;;;;;5009594;28;20199;-67
2023/06/27 06:29:36;;;;;;;2.80;2.57;;;21.60;87.50;;;;;;5001259;28;20241;-67
2023/06/27 06:32:02;;;;;;;5.73;3.10;;;21.60;85.70;;;;;;5003863;28;20659;-68
2023/06/27 06:34:27;;;;;;;3.27;2.50;;;21.60;84.90;;;;;;5009045;28;20186;-68
2023/06/27 06:36:53;;;;;;;3.83;3.43;;;21.60;85.10;;;;;;5002784;28;20223;-68
2023/06/27 06:39:18;;;;;;;3.53;2.77;;;21.60;83.70;;;;;;5005652;28;20183;-68
2023/06/27 06:41:44;;;;;;;3.83;2.43;;;21.60;84.30;;;;;;5009824;28;20213;-68
2023/06/27 06:44:09;;;;;;;3.20;2.00;;;21.60;83.80;;;;;;5005148;28;20199;-67
2023/06/27 06:46:37;;;;;;;2.80;2.23;;;21.80;83.10;;;;;;5007613;28;20700;-67
2023/06/27 06:49:03;;;;;;;3.67;2.70;;;22.00;81.50;;;;;;5012368;28;20175;-68
2023/06/27 06:51:28;;;;;;;8.17;2.60;;;22.10;80.40;;;;;;5013118;28;20533;-67
2023/06/27 06:53:54;;;;;;;5.30;2.17;;;22.50;79.10;;;;;;5009881;28;20660;-68
2023/06/27 06:56:20;;;;;;;10.17;2.80;;;22.80;73.40;;;;;;5012194;28;20207;-68
2023/06/27 06:58:45;;;;;;;2.63;2.43;;;22.80;70.50;;;;;;5008313;28;20257;-68
2023/06/27 07:01:11;;;;;;;5.97;3.10;;;22.80;73.00;;;;;;5004197;28;20174;-67
2023/06/27 07:03:36;;;;;;;3.10;2.80;;;22.80;69.80;;;;;;5008063;28;20549;-67
2023/06/27 07:06:02;;;;;;;2.43;1.77;;;22.80;68.20;;;;;;5010042;28;20698;-67
2023/06/27 07:08:28;;;;;;;4.10;3.17;;;22.60;64.80;;;;;;5010820;28;20193;-67
2023/06/27 07:10:53;;;;;;;3.97;2.70;;;22.80;64.90;;;;;;5005872;28;20634;-71
2023/06/27 07:13:19;;;;;;;6.47;2.47;;;22.90;66.80;;;;;;4999783;28;20234;-69
2023/06/27 07:15:44;;;;;;;2.07;1.87;;;23.00;65.30;;;;;;5009099;28;20222;-69
2023/06/27 07:18:10;;;;;;;7.90;2.43;;;23.20;64.90;;;;;;5009567;28;20191;-69
2023/06/27 07:20:35;;;;;;;3.43;2.60;;;23.10;64.60;;;;;;5005067;28;20190;-69
2023/06/27 07:23:01;;;;;;;3.33;1.87;;;23.20;65.40;;;;;;5003402;28;20640;-69
2023/06/27 07:25:28;;;;;;;4.93;2.80;;;23.60;64.40;;;;;;5004205;28;20204;-70
2023/06/27 07:27:54;;;;;;;2.80;2.27;;;23.80;62.30;;;;;;5002731;28;20215;-69
2023/06/27 07:30:19;;;;;;;3.90;2.80;;;24.00;62.30;;;;;;5009304;28;20484;-69
2023/06/27 07:32:45;;;;;;;2.77;2.43;;;23.80;63.20;;;;;;5003073;28;20207;-70
2023/06/27 07:35:10;;;;;;;5.13;3.20;;;23.80;62.90;;;;;;5010455;28;21194;-70
2023/06/27 07:37:37;;;;;;;4.53;2.77;;;23.70;63.70;;;;;;5008289;28;20707;-69
2023/06/27 07:40:04;;;;;;;4.43;3.00;;;23.90;63.60;;;;;;5008808;28;20220;-69
2023/06/27 07:42:30;;;;;;;5.40;2.97;;;23.90;63.00;;;;;;5006380;28;20454;-69
2023/06/27 07:44:55;;;;;;;3.33;2.90;;;24.00;63.00;;;;;;5008800;28;20591;-70
2023/06/27 07:47:21;;;;;;;4.87;2.90;;;24.00;62.00;;;;;;5002530;28;20544;-70
2023/06/27 07:49:46;;;;;;;4.67;2.50;;;23.90;61.50;;;;;;5006324;28;20187;-70
2023/06/27 07:52:12;;;;;;;2.83;2.63;;;24.20;61.30;;;;;;5011466;28;20220;-70
2023/06/27 07:54:37;;;;;;;3.23;2.40;;;24.60;60.10;;;;;;5010150;28;20198;-67
2023/06/27 07:57:04;;;;;;;5.40;2.90;;;25.00;59.10;;;;;;5004272;28;20203;-70
2023/06/27 07:59:29;;;;;;;3.30;2.53;;;25.10;58.60;;;;;;5009104;28;20269;-68
2023/06/27 08:01:55;;;;;;;3.73;2.80;;;25.40;58.60;;;;;;5007987;28;20584;-70
2023/06/27 08:04:21;;;;;;;5.00;2.40;;;25.70;57.50;;;;;;5003347;28;20753;-70
2023/06/27 08:06:47;;;;;;;3.93;2.47;;;25.70;56.80;;;;;;4996344;28;20525;-70
2023/06/27 08:09:12;;;;;;;5.37;2.83;;;25.70;57.10;;;;;;5011422;28;20249;-70
2023/06/27 08:11:38;;;;;;;4.33;2.70;;;25.80;56.80;;;;;;5002416;28;20203;-70
2023/06/27 08:14:03;;;;;;;9.20;4.43;;;25.50;57.10;;;;;;4992649;28;20187;-69
2023/06/27 08:16:29;;;;;;;4.73;2.30;;;25.40;57.30;;;;;;4992246;28;20211;-68
2023/06/27 08:18:54;;;;;;;3.33;3.03;;;25.00;57.40;;;;;;5002187;28;20657;-71
2023/06/27 08:21:20;;;;;;;5.63;3.00;;;25.20;57.90;;;;;;4997974;28;20246;-71
2023/06/27 08:23:45;;;;;;;4.73;2.40;;;25.80;57.20;;;;;;4992630;28;20302;-69
2023/06/27 08:26:15;;;;;;;2.77;2.53;;;26.30;56.70;;;;;;4986254;28;20231;-70
2023/06/27 08:28:41;;;;;;;5.53;2.90;;;26.70;55.30;;;;;;4995236;28;20184;-69
2023/06/27 08:31:06;;;;;;;7.70;3.67;;;27.00;54.40;;;;;;4997012;28;20442;-69
2023/06/27 08:33:32;;;;;;;4.90;3.30;;;27.10;54.00;;;;;;5008629;28;20186;-70
2023/06/27 08:35:57;;;;;;;4.30;3.10;;;27.30;53.60;;;;;;5001359;28;20289;-69
2023/06/27 08:38:23;;;;;;;4.70;2.53;;;27.60;52.70;;;;;;5000586;28;20195;-69
2023/06/27 08:40:56;;;;;;;6.20;3.43;;;27.60;52.50;;;;;;5009839;28;20294;-69
2023/06/27 08:43:22;;;;;;;5.73;2.97;;;27.60;52.60;;;;;;5011682;28;20197;-69
2023/06/27 08:45:49;;;;;;;3.20;2.90;;;27.40;51.90;;;;;;5011866;28;20441;-70
2023/06/27 08:48:16;;;;;;;7.90;3.57;;;27.20;52.50;;;;;;5002108;28;20536;-70
2023/06/27 08:50:43;;;;;;;5.40;3.00;;;26.90;52.70;;;;;;5004180;28;20434;-70
2023/06/27 08:53:13;;;;;;;5.53;3.50;;;27.00;52.80;;;;;;5009230;28;20525;-70
2023/06/27 08:55:44;;;;;;;5.73;3.70;;;27.30;52.30;;;;;;5009341;28;20862;-69
2023/06/27 08:58:15;;;;;;;7.20;3.60;;;27.20;51.90;;;;;;5005291;28;20812;-68
2023/06/27 09:00:43;;;;;;;6.37;3.80;;;27.40;51.50;;;;;;5005966;28;20476;-70
2023/06/27 09:03:10;;;;;;;4.50;3.57;;;27.70;50.70;;;;;;5002434;28;20458;-69
2023/06/27 09:05:37;;;;;;;5.23;3.50;;;28.10;50.40;;;;;;5004312;28;20492;-68
2023/06/27 09:08:02;;;;;;;4.57;3.40;;;27.90;50.80;;;;;;4997196;28;20930;-70
2023/06/27 09:10:29;;;;;;;3.77;3.37;;;27.70;51.00;;;;;;5011335;28;20448;-69
2023/06/27 09:12:54;;;;;;;2.40;2.20;;;27.80;51.40;;;;;;5011779;28;20636;-67
2023/06/27 09:15:21;;;;;;;5.33;3.23;;;27.80;51.20;;;;;;5011402;28;20461;-69
2023/06/27 09:17:47;;;;;;;3.53;3.03;;;27.90;51.40;;;;;;5002876;28;20191;-69
2023/06/27 09:20:19;;;;;;;5.03;3.30;;;28.00;50.80;;;;;;5001916;28;20959;-69
2023/06/27 09:22:45;;;;;;;4.83;2.90;;;27.70;51.00;;;;;;5006084;28;20422;-69
2023/06/27 09:25:12;;;;;;;3.53;3.03;;;27.00;51.50;;;;;;5001423;28;21064;-70
2023/06/27 09:27:38;;;;;;;5.73;3.00;;;27.30;51.60;;;;;;5008182;28;20386;-70
2023/06/27 09:30:05;;;;;;;8.13;2.87;;;27.60;50.70;;;;;;5011414;28;20514;-69
2023/06/27 09:32:31;;;;;;;3.70;2.67;;;27.20;50.60;;;;;;5010625;28;20171;-70
2023/06/27 09:35:00;;;;;;;8.27;3.57;;;27.20;50.30;;;;;;5006718;28;20444;-70
2023/06/27 09:37:33;;;;;;;7.47;2.77;;;27.10;50.70;;;;;;5000515;28;20191;-70
2023/06/27 09:40:24;;;;;;;6.33;4.50;;;26.80;49.70;;;;;;4995261;28;20790;-69
2023/06/27 09:42:55;;;;;;;5.70;3.13;;;26.50;49.70;;;;;;4997521;28;20522;-69
2023/06/27 09:45:22;;;;;;;3.53;2.70;;;26.40;49.80;;;;;;5014834;28;20637;-69
2023/06/27 09:47:51;;;;;;;9.77;3.27;;;26.70;50.90;;;;;;5015084;28;20418;-69
2023/06/27 09:50:17;;;;;;;4.57;3.37;;;26.90;50.30;;;;;;5006761;28;21009;-70
2023/06/27 09:52:53;;;;;;;3.00;2.80;;;26.80;50.50;;;;;;5004835;28;20797;-70
2023/06/27 09:55:20;;;;;;;5.10;3.20;;;27.20;50.40;;;;;;5002287;28;20883;-69
2023/06/27 09:57:47;;;;;;;5.47;3.20;;;27.10;50.20;;;;;;5013823;28;20429;-70
2023/06/27 10:00:13;;;;;;;6.33;3.57;;;26.90;50.80;;;;;;5013798;28;20422;-70
2023/06/27 10:02:40;;;;;;;3.23;2.93;;;26.40;50.70;;;;;;5006209;28;20434;-70
2023/06/27 10:05:06;;;;;;;4.60;2.80;;;26.30;50.00;;;;;;4996244;28;20940;-71
2023/06/27 10:07:32;;;;;;;3.97;2.40;;;26.50;50.00;;;;;;5002116;28;20541;-71
2023/06/27 10:09:57;;;;;;;3.10;2.47;;;27.00;50.20;;;;;;5008760;28;20592;-70
2023/06/27 10:12:24;;;;;;;5.33;3.90;;;27.30;49.50;;;;;;5010387;28;20207;-71
2023/06/27 10:14:50;;;;;;;4.17;3.20;;;27.40;49.80;;;;;;5006496;28;20187;-71
2023/06/27 10:17:18;;;;;;;5.07;2.50;;;27.80;48.60;;;;;;5008014;28;20458;-71
2023/06/27 10:19:48;;;;;;;3.57;3.07;;;27.60;49.10;;;;;;5003664;28;20656;-70
2023/06/27 10:22:16;;;;;;;3.70;2.37;;;27.90;49.60;;;;;;5007243;28;20449;-71
2023/06/27 10:24:45;;;;;;;4.67;3.23;;;28.00;48.80;;;;;;5009977;28;20514;-71
2023/06/27 10:27:13;;;;;;;5.07;2.70;;;28.30;48.50;;;;;;5010243;28;20461;-71
2023/06/27 10:29:43;;;;;;;9.40;3.23;;;28.50;47.70;;;;;;5010960;28;20448;-71
2023/06/27 10:32:09;;;;;;;3.03;2.83;;;28.90;47.80;;;;;;5009117;28;20458;-72
2023/06/27 10:34:43;;;;;;;3.47;3.17;;;29.40;46.70;;;;;;5003521;28;20947;-71
2023/06/27 10:37:28;;;;;;;4.73;4.23;;;29.60;46.30;;;;;;5004748;28;20449;-71
2023/06/27 10:40:00;;;;;;;4.00;2.97;;;29.40;46.10;;;;;;4998144;28;20426;-71
2023/06/27 10:42:29;;;;;;;5.03;3.10;;;29.30;46.30;;;;;;5007048;28;20426;-70
2023/06/27 10:45:03;;;;;;;2.80;2.30;;;28.90;47.60;;;;;;5005357;28;20978;-70
2023/06/27 10:47:34;;;;;;;4.93;3.50;;;28.50;47.00;;;;;;5010864;28;20480;-71
2023/06/27 10:50:06;;;;;;;4.20;2.80;;;29.10;47.30;;;;;;5002616;28;20466;-71
2023/06/27 10:52:31;;;;;;;5.37;2.57;;;29.70;46.40;;;;;;5001695;28;20430;-71
2023/06/27 10:55:31;;;;;;;3.70;2.70;;;30.00;46.10;;;;;;4996781;28;20437;-70
2023/06/27 10:58:02;;;;;;;2.60;2.40;;;30.80;45.00;;;;;;4959607;28;20616;-71
2023/06/27 11:00:33;;;;;;;3.90;3.00;;;31.20;44.10;;;;;;5008463;28;20442;-68
2023/06/27 11:03:03;;;;;;;5.63;3.43;;;31.00;45.00;;;;;;5005047;28;20805;-69
2023/06/27 11:06:12;;;;;;;3.40;3.20;;;30.40;44.50;;;;;;5000268;28;20461;-70
2023/06/27 11:08:40;;;;;;;3.60;3.30;;;30.20;44.00;;;;;;4950442;28;20448;-70
2023/06/27 11:11:06;;;;;;;7.70;3.50;;;30.20;44.70;;;;;;4989002;28;20431;-71
2023/06/27 11:13:38;;;;;;;3.63;2.80;;;30.80;44.30;;;;;;5008156;28;20448;-68
2023/06/27 11:16:04;;;;;;;7.50;3.30;;;31.00;43.60;;;;;;5011792;28;20473;-72
2023/06/27 11:18:30;;;;;;;3.00;2.73;;;30.00;43.10;;;;;;5012410;28;20813;-70
2023/06/27 11:20:56;;;;;;;2.87;2.67;;;29.20;43.70;;;;;;5011223;28;20521;-71
2023/06/27 11:23:23;;;;;;;5.97;2.93;;;28.90;44.80;;;;;;5007658;28;20197;-70
2023/06/27 11:25:49;;;;;;;5.60;3.03;;;28.80;45.40;;;;;;5009978;28;20535;-71
2023/06/27 11:28:21;;;;;;;2.90;2.60;;;28.50;45.70;;;;;;5006827;28;20442;-72
2023/06/27 11:30:46;;;;;;;3.23;2.93;;;28.30;45.70;;;;;;5008902;28;20787;-71
2023/06/27 11:33:23;;;;;;;4.10;3.30;;;27.90;46.40;;;;;;4998949;28;20496;-71
2023/06/27 11:35:49;;;;;;;3.40;3.10;;;28.00;46.90;;;;;;5011126;28;20289;-72
2023/06/27 11:38:14;;;;;;;4.70;3.10;;;28.40;46.10;;;;;;5005193;28;20538;-72
2023/06/27 11:40:50;;;;;;;3.60;3.30;;;28.50;45.70;;;;;;5003709;28;20285;-71
2023/06/27 11:43:16;;;;;;;3.40;3.10;;;28.40;45.80;;;;;;5010217;28;20194;-71
2023/06/27 11:45:46;;;;;;;3.23;2.93;;;29.10;45.70;;;;;;5003504;28;20464;-71
2023/06/27 11:48:11;;;;;;;8.00;3.50;;;30.30;44.00;;;;;;5006408;28;20520;-70
2023/06/27 11:50:56;;;;;;;3.70;3.40;;;31.10;43.40;;;;;;5008873;28;20848;-72
2023/06/27 11:53:26;;;;;;;4.97;3.33;;;31.80;42.20;;;;;;5007991;28;20182;-71
2023/06/27 11:55:54;;;;;;;4.00;3.70;;;32.30;40.70;;;;;;5005588;28;20457;-73
2023/06/27 11:58:29;;;;;;;7.40;4.33;;;32.30;40.70;;;;;;5006020;28;20805;-72
2023/06/27 12:00:56;;;;;;;4.70;4.00;;;33.30;40.50;;;;;;5007075;28;20803;-72
2023/06/27 12:03:29;;;;;;;3.83;3.50;;;32.70;39.60;;;;;;4999753;28;20456;-72
2023/06/27 12:05:56;;;;;;;6.40;4.00;;;31.80;40.10;;;;;;5004580;28;20457;-71
2023/06/27 12:08:29;;;;;;;5.47;4.00;;;30.80;41.20;;;;;;5006767;28;20449;-73
2023/06/27 12:10:56;;;;;;;5.57;3.50;;;30.00;42.00;;;;;;5001604;28;20498;-72
2023/06/27 12:13:37;;;;;;;5.33;3.43;;;30.30;42.10;;;;;;5000537;28;20434;-71
2023/06/27 12:16:04;;;;;;;3.00;2.80;;;30.30;41.50;;;;;;5002275;28;20531;-72
2023/06/27 12:18:30;;;;;;;8.67;3.27;;;30.00;41.80;;;;;;5009331;28;20437;-72
2023/06/27 12:20:57;;;;;;;5.33;3.00;;;29.80;42.00;;;;;;4995927;28;20812;-73
2023/06/27 12:23:26;;;;;;;3.60;3.30;;;30.10;42.80;;;;;;5009137;28;20437;-73
2023/06/27 12:25:51;;;;;;;4.37;3.37;;;31.30;42.10;;;;;;5006965;28;20466;-70
2023/06/27 12:28:17;;;;;;;3.87;3.13;;;32.60;40.20;;;;;;5002287;28;20437;-72
2023/06/27 12:30:43;;;;;;;3.37;3.10;;;33.10;39.90;;;;;;5007233;28;20555;-72
2023/06/27 12:33:09;;;;;;;3.23;2.93;;;33.00;38.20;;;;;;5005380;28;20441;-72
2023/06/27 12:35:35;;;;;;;3.73;3.03;;;33.90;38.10;;;;;;4991832;28;21044;-73
2023/06/27 12:38:01;;;;;;;3.20;2.90;;;34.30;37.90;;;;;;5008351;28;20931;-72
2023/06/27 12:40:26;;;;;;;3.30;2.80;;;36.00;36.70;;;;;;5010508;28;20489;-72
2023/06/27 12:42:53;;;;;;;2.97;2.67;;;35.70;35.50;;;;;;5004433;28;20183;-72
2023/06/27 12:45:19;;;;;;;3.57;3.10;;;36.00;35.10;;;;;;4995801;28;20227;-70
2023/06/27 12:47:45;;;;;;;3.83;3.37;;;37.20;34.60;;;;;;5007696;28;20441;-71